Beach Haven, NJ

4:26 PM EDT on September 28, 2016 (GMT -0400)
LBI-Ship Bottom | | Change Station

Elev 108 ft 39.65 °N, 74.18 °W | Updated 32 seconds ago

Light Rain
Light Rain Mist
66.1 °F
Feels Like 66.1 °F
N
19.0
Wind Variable Wind from East

Today
High -- | Low -- °F
--% Chance of Precip.
Yesterday
High -- | Low -- °F
Precip. -- in
Pressure 30.11 in
Visibility 4.0 miles
Clouds Overcast 700 ft
Dew Point 63 °F
Humidity 91%
Rainfall 0.00 in
Snow Depth Not available.
6:50 AM 6:43 PM
Waning Crescent, 4% visible
SPECI KMJX 282011Z AUTO 06013G22KT 4SM -RA BR OVC007 17/17 A3011 RMK AO2 P0000
Pressure 30.11 in
Visibility 4.0 miles
Clouds Overcast 700 ft
Dew Point 63 °F
Humidity 91%
Rainfall 0.00 in
Snow Depth Not available.
6:50 AM 6:43 PM
Waning Crescent, 4% visible
SPECI KMJX 282011Z AUTO 06013G22KT 4SM -RA BR OVC007 17/17 A3011 RMK AO2 P0000

10-Day Weather Forecast

Almanac

Astronomy

Sep. 28, 2016 Rise Set
Actual Time
Civil Twilight
Nautical Twilight
Astronomical Twilight
Moon
Length of Visible Light
Length of Day
Tomorrow will be .
, % of the Moon is Illuminated

Today's Extremes

State Highs State Lows

Community

WunderPhotos

Upload Photos

1,942,318 photos uploaded!

WunderBlog® & News

Nearby

Air Quality

  Air Quality AQ Index Pollutant
Not available.

Snow Depth

Station Depth Elevation

Earthquake Activity

City Distance Mag. Time & Date
Minimum magnitude displayed is 2.5.

Coastal Water Temperatures

Place Temperature

Stations

Nearby Weather Stations

Station Location Temp. Windchill Dew Point Humidity Wind Precip. Elev Updated Type
                   

Watches & Warnings

There are currently no watches in effect.